sensor_id;sensor_type;location;lat;lon;timestamp;temperature;humidity
33328;DHT22;19692;52.998;9.116;2024-03-08T00:01:15;1.30;99.90
33328;DHT22;19692;52.998;9.116;2024-03-08T00:03:42;1.30;99.90
33328;DHT22;19692;52.998;9.116;2024-03-08T00:06:07;1.20;99.90
33328;DHT22;19692;52.998;9.116;2024-03-08T00:08:33;1.20;99.90
33328;DHT22;19692;52.998;9.116;2024-03-08T00:10:58;1.30;99.90
33328;DHT22;19692;52.998;9.116;2024-03-08T00:13:24;1.20;99.90
33328;DHT22;19692;52.998;9.116;2024-03-08T00:15:50;1.20;99.90
33328;DHT22;19692;52.998;9.116;2024-03-08T00:18:16;1.20;99.90
33328;DHT22;19692;52.998;9.116;2024-03-08T00:20:42;1.30;99.90
33328;DHT22;19692;52.998;9.116;2024-03-08T00:23:09;1.20;99.90
33328;DHT22;19692;52.998;9.116;2024-03-08T00:25:36;1.30;99.90
33328;DHT22;19692;52.998;9.116;2024-03-08T00:28:01;1.20;99.90
33328;DHT22;19692;52.998;9.116;2024-03-08T00:30:27;1.20;99.90
33328;DHT22;19692;52.998;9.116;2024-03-08T00:32:52;1.10;99.90
33328;DHT22;19692;52.998;9.116;2024-03-08T00:35:18;1.10;99.90
33328;DHT22;19692;52.998;9.116;2024-03-08T00:37:43;1.00;99.90
33328;DHT22;19692;52.998;9.116;2024-03-08T00:40:12;1.00;99.90
33328;DHT22;19692;52.998;9.116;2024-03-08T00:42:38;1.00;99.90
33328;DHT22;19692;52.998;9.116;2024-03-08T00:45:05;0.90;99.90
33328;DHT22;19692;52.998;9.116;2024-03-08T00:47:31;0.90;99.90
33328;DHT22;19692;52.998;9.116;2024-03-08T00:49:56;0.90;99.90
33328;DHT22;19692;52.998;9.116;2024-03-08T00:52:22;0.90;99.90
33328;DHT22;19692;52.998;9.116;2024-03-08T00:54:49;0.90;99.90
33328;DHT22;19692;52.998;9.116;2024-03-08T00:57:15;0.90;99.90
33328;DHT22;19692;52.998;9.116;2024-03-08T00:59:40;0.90;99.90
33328;DHT22;19692;52.998;9.116;2024-03-08T01:02:06;0.90;99.90
33328;DHT22;19692;52.998;9.116;2024-03-08T01:04:32;0.90;99.90
33328;DHT22;19692;52.998;9.116;2024-03-08T01:06:58;0.90;99.90
33328;DHT22;19692;52.998;9.116;2024-03-08T01:09:25;0.90;99.90
33328;DHT22;19692;52.998;9.116;2024-03-08T01:11:52;0.90;99.90
33328;DHT22;19692;52.998;9.116;2024-03-08T01:14:20;0.90;99.90
33328;DHT22;19692;52.998;9.116;2024-03-08T01:16:48;0.90;99.90
33328;DHT22;19692;52.998;9.116;2024-03-08T01:19:13;0.80;99.90
33328;DHT22;19692;52.998;9.116;2024-03-08T01:21:39;0.80;99.90
33328;DHT22;19692;52.998;9.116;2024-03-08T01:24:05;0.90;99.90
33328;DHT22;19692;52.998;9.116;2024-03-08T01:26:31;0.80;99.90
33328;DHT22;19692;52.998;9.116;2024-03-08T01:28:56;0.80;99.90
33328;DHT22;19692;52.998;9.116;2024-03-08T01:31:22;0.80;99.90
33328;DHT22;19692;52.998;9.116;2024-03-08T01:33:47;0.80;99.90
33328;DHT22;19692;52.998;9.116;2024-03-08T01:36:13;0.70;99.90
33328;DHT22;19692;52.998;9.116;2024-03-08T01:38:42;0.70;99.90
33328;DHT22;19692;52.998;9.116;2024-03-08T01:41:07;0.70;99.90
33328;DHT22;19692;52.998;9.116;2024-03-08T01:43:34;0.70;99.90
33328;DHT22;19692;52.998;9.116;2024-03-08T01:46:01;0.70;99.90
33328;DHT22;19692;52.998;9.116;2024-03-08T01:48:30;0.70;99.90
33328;DHT22;19692;52.998;9.116;2024-03-08T01:50:58;0.70;99.90
33328;DHT22;19692;52.998;9.116;2024-03-08T01:53:24;0.60;99.90
33328;DHT22;19692;52.998;9.116;2024-03-08T01:55:55;0.60;99.90
33328;DHT22;19692;52.998;9.116;2024-03-08T01:58:22;0.60;99.90
33328;DHT22;19692;52.998;9.116;2024-03-08T02:00:49;0.60;99.90
33328;DHT22;19692;52.998;9.116;2024-03-08T02:03:15;0.60;99.90
33328;DHT22;19692;52.998;9.116;2024-03-08T02:05:41;0.60;99.90
33328;DHT22;19692;52.998;9.116;2024-03-08T02:08:08;0.60;99.90
33328;DHT22;19692;52.998;9.116;2024-03-08T02:10:38;0.60;99.90
33328;DHT22;19692;52.998;9.116;2024-03-08T02:13:04;0.60;99.90
33328;DHT22;19692;52.998;9.116;2024-03-08T02:18:17;0.50;99.90
33328;DHT22;19692;52.998;9.116;2024-03-08T02:20:43;0.50;99.90
33328;DHT22;19692;52.998;9.116;2024-03-08T02:23:08;0.50;99.90
33328;DHT22;19692;52.998;9.116;2024-03-08T02:25:35;0.50;99.90
33328;DHT22;19692;52.998;9.116;2024-03-08T02:28:00;0.50;99.90
33328;DHT22;19692;52.998;9.116;2024-03-08T02:30:26;0.50;99.90
33328;DHT22;19692;52.998;9.116;2024-03-08T02:32:55;0.40;99.90
33328;DHT22;19692;52.998;9.116;2024-03-08T02:35:21;0.40;99.90
33328;DHT22;19692;52.998;9.116;2024-03-08T02:37:46;0.40;99.90
33328;DHT22;19692;52.998;9.116;2024-03-08T02:40:13;0.40;99.90
33328;DHT22;19692;52.998;9.116;2024-03-08T02:42:39;0.30;99.90
33328;DHT22;19692;52.998;9.116;2024-03-08T02:45:05;0.30;99.90
33328;DHT22;19692;52.998;9.116;2024-03-08T02:47:31;0.30;99.90
33328;DHT22;19692;52.998;9.116;2024-03-08T02:49:57;0.30;99.90
33328;DHT22;19692;52.998;9.116;2024-03-08T02:52:22;0.30;99.90
33328;DHT22;19692;52.998;9.116;2024-03-08T02:54:48;0.30;99.90
33328;DHT22;19692;52.998;9.116;2024-03-08T02:57:14;0.20;99.90
33328;DHT22;19692;52.998;9.116;2024-03-08T02:59:40;0.20;99.90
33328;DHT22;19692;52.998;9.116;2024-03-08T03:02:06;0.20;99.90
33328;DHT22;19692;52.998;9.116;2024-03-08T03:04:32;0.20;99.90
33328;DHT22;19692;52.998;9.116;2024-03-08T03:07:00;0.20;99.90
33328;DHT22;19692;52.998;9.116;2024-03-08T03:09:26;0.20;99.90
33328;DHT22;19692;52.998;9.116;2024-03-08T03:11:53;0.20;99.90
33328;DHT22;19692;52.998;9.116;2024-03-08T03:14:21;0.20;99.90
33328;DHT22;19692;52.998;9.116;2024-03-08T03:16:46;0.20;99.90
33328;DHT22;19692;52.998;9.116;2024-03-08T03:19:12;0.20;99.90
33328;DHT22;19692;52.998;9.116;2024-03-08T03:21:37;0.20;99.90
33328;DHT22;19692;52.998;9.116;2024-03-08T03:24:04;0.10;99.90
33328;DHT22;19692;52.998;9.116;2024-03-08T03:26:36;0.00;99.90
33328;DHT22;19692;52.998;9.116;2024-03-08T03:29:07;0.10;99.90
33328;DHT22;19692;52.998;9.116;2024-03-08T03:31:34;0.00;99.90
33328;DHT22;19692;52.998;9.116;2024-03-08T03:34:01;0.00;99.90
33328;DHT22;19692;52.998;9.116;2024-03-08T03:36:29;0.10;99.90
33328;DHT22;19692;52.998;9.116;2024-03-08T03:38:55;0.00;99.90
33328;DHT22;19692;52.998;9.116;2024-03-08T03:41:31;0.00;99.90
33328;DHT22;19692;52.998;9.116;2024-03-08T03:43:56;0.00;99.90
33328;DHT22;19692;52.998;9.116;2024-03-08T03:46:22;-0.10;99.90
33328;DHT22;19692;52.998;9.116;2024-03-08T03:48:48;-0.10;99.90
33328;DHT22;19692;52.998;9.116;2024-03-08T03:51:13;0.00;99.90
33328;DHT22;19692;52.998;9.116;2024-03-08T03:53:41;-0.10;99.90
33328;DHT22;19692;52.998;9.116;2024-03-08T03:56:07;-0.10;99.90
33328;DHT22;19692;52.998;9.116;2024-03-08T03:58:33;-0.10;99.90
33328;DHT22;19692;52.998;9.116;2024-03-08T04:00:58;-0.10;99.90
33328;DHT22;19692;52.998;9.116;2024-03-08T04:03:24;-0.10;99.90
33328;DHT22;19692;52.998;9.116;2024-03-08T04:05:49;-0.20;99.90
33328;DHT22;19692;52.998;9.116;2024-03-08T04:08:16;-0.10;99.90
33328;DHT22;19692;52.998;9.116;2024-03-08T04:10:42;-0.20;99.90
33328;DHT22;19692;52.998;9.116;2024-03-08T04:13:08;-0.20;99.90
33328;DHT22;19692;52.998;9.116;2024-03-08T04:15:35;-0.30;99.90
33328;DHT22;19692;52.998;9.116;2024-03-08T04:18:00;-0.20;99.90
33328;DHT22;19692;52.998;9.116;2024-03-08T04:20:26;-0.30;99.90
33328;DHT22;19692;52.998;9.116;2024-03-08T04:22:51;-0.30;99.90
33328;DHT22;19692;52.998;9.116;2024-03-08T04:25:17;-0.30;99.90
33328;DHT22;19692;52.998;9.116;2024-03-08T04:27:42;-0.40;99.90
33328;DHT22;19692;52.998;9.116;2024-03-08T04:30:10;-0.40;99.90
33328;DHT22;19692;52.998;9.116;2024-03-08T04:32:35;-0.30;99.90
33328;DHT22;19692;52.998;9.116;2024-03-08T04:35:01;-0.40;99.90
33328;DHT22;19692;52.998;9.116;2024-03-08T04:37:27;-0.40;99.90
33328;DHT22;19692;52.998;9.116;2024-03-08T04:39:55;-0.40;99.90
33328;DHT22;19692;52.998;9.116;2024-03-08T04:42:20;-0.50;99.90
33328;DHT22;19692;52.998;9.116;2024-03-08T04:44:46;-0.40;99.90
33328;DHT22;19692;52.998;9.116;2024-03-08T04:47:12;-0.40;99.90
33328;DHT22;19692;52.998;9.116;2024-03-08T04:49:38;-0.40;99.90
33328;DHT22;19692;52.998;9.116;2024-03-08T04:52:04;-0.40;99.90
33328;DHT22;19692;52.998;9.116;2024-03-08T04:54:32;-0.50;99.90
33328;DHT22;19692;52.998;9.116;2024-03-08T04:56:58;-0.50;99.90
33328;DHT22;19692;52.998;9.116;2024-03-08T04:59:25;-0.60;99.90
33328;DHT22;19692;52.998;9.116;2024-03-08T05:01:52;-0.60;99.90
33328;DHT22;19692;52.998;9.116;2024-03-08T05:04:17;-0.50;99.90
33328;DHT22;19692;52.998;9.116;2024-03-08T05:06:43;-0.50;99.90
33328;DHT22;19692;52.998;9.116;2024-03-08T05:09:08;-0.50;99.90
33328;DHT22;19692;52.998;9.116;2024-03-08T05:11:44;-0.50;99.90
33328;DHT22;19692;52.998;9.116;2024-03-08T05:14:10;-0.60;99.90
33328;DHT22;19692;52.998;9.116;2024-03-08T05:16:36;-0.50;99.90
33328;DHT22;19692;52.998;9.116;2024-03-08T05:19:02;-0.50;99.90
33328;DHT22;19692;52.998;9.116;2024-03-08T05:21:27;-0.50;99.90
33328;DHT22;19692;52.998;9.116;2024-03-08T05:23:54;-0.50;99.90
33328;DHT22;19692;52.998;9.116;2024-03-08T05:26:20;-0.60;99.90
33328;DHT22;19692;52.998;9.116;2024-03-08T05:28:45;-0.60;99.90
33328;DHT22;19692;52.998;9.116;2024-03-08T05:31:21;-0.60;99.90
33328;DHT22;19692;52.998;9.116;2024-03-08T05:33:49;-0.60;99.90
33328;DHT22;19692;52.998;9.116;2024-03-08T05:36:15;-0.60;99.90
33328;DHT22;19692;52.998;9.116;2024-03-08T05:38:43;-0.70;99.90
33328;DHT22;19692;52.998;9.116;2024-03-08T05:41:09;-0.70;99.90
33328;DHT22;19692;52.998;9.116;2024-03-08T05:43:34;-0.70;99.90
33328;DHT22;19692;52.998;9.116;2024-03-08T05:46:00;-0.70;99.90
33328;DHT22;19692;52.998;9.116;2024-03-08T05:48:26;-0.70;99.90
33328;DHT22;19692;52.998;9.116;2024-03-08T05:50:51;-0.70;99.90
33328;DHT22;19692;52.998;9.116;2024-03-08T05:53:17;-0.70;99.90
33328;DHT22;19692;52.998;9.116;2024-03-08T05:55:42;-0.80;99.90
33328;DHT22;19692;52.998;9.116;2024-03-08T05:58:08;-0.80;99.90
33328;DHT22;19692;52.998;9.116;2024-03-08T06:00:34;-0.80;99.90
33328;DHT22;19692;52.998;9.116;2024-03-08T06:03:02;-0.70;99.90
33328;DHT22;19692;52.998;9.116;2024-03-08T06:05:28;-0.70;99.90
33328;DHT22;19692;52.998;9.116;2024-03-08T06:07:53;-0.70;99.90
33328;DHT22;19692;52.998;9.116;2024-03-08T06:10:19;-0.70;99.90
33328;DHT22;19692;52.998;9.116;2024-03-08T06:12:45;-0.60;99.90
33328;DHT22;19692;52.998;9.116;2024-03-08T06:15:11;-0.70;99.90
33328;DHT22;19692;52.998;9.116;2024-03-08T06:17:40;-0.70;99.90
33328;DHT22;19692;52.998;9.116;2024-03-08T06:20:06;-0.70;99.90
33328;DHT22;19692;52.998;9.116;2024-03-08T06:22:39;-0.60;99.90
33328;DHT22;19692;52.998;9.116;2024-03-08T06:25:07;-0.60;99.90
33328;DHT22;19692;52.998;9.116;2024-03-08T06:27:33;-0.60;99.90
33328;DHT22;19692;52.998;9.116;2024-03-08T06:29:59;-0.60;99.90
33328;DHT22;19692;52.998;9.116;2024-03-08T06:32:25;-0.50;99.90
33328;DHT22;19692;52.998;9.116;2024-03-08T06:34:51;-0.50;99.90
33328;DHT22;19692;52.998;9.116;2024-03-08T06:37:16;-0.60;99.90
33328;DHT22;19692;52.998;9.116;2024-03-08T06:39:47;-0.50;99.90
33328;DHT22;19692;52.998;9.116;2024-03-08T06:42:13;-0.50;99.90
33328;DHT22;19692;52.998;9.116;2024-03-08T06:44:38;-0.40;99.90
33328;DHT22;19692;52.998;9.116;2024-03-08T06:47:11;-0.40;99.90
33328;DHT22;19692;52.998;9.116;2024-03-08T06:49:36;-0.40;99.90
33328;DHT22;19692;52.998;9.116;2024-03-08T06:52:02;-0.40;99.90
33328;DHT22;19692;52.998;9.116;2024-03-08T06:54:27;-0.30;99.90
33328;DHT22;19692;52.998;9.116;2024-03-08T06:56:53;-0.40;99.90
33328;DHT22;19692;52.998;9.116;2024-03-08T06:59:18;-0.30;99.90
33328;DHT22;19692;52.998;9.116;2024-03-08T07:01:44;-0.20;99.90
33328;DHT22;19692;52.998;9.116;2024-03-08T07:04:10;-0.20;99.90
33328;DHT22;19692;52.998;9.116;2024-03-08T07:06:37;-0.10;99.90
33328;DHT22;19692;52.998;9.116;2024-03-08T07:09:02;-0.10;99.90
33328;DHT22;19692;52.998;9.116;2024-03-08T07:11:28;0.00;99.90
33328;DHT22;19692;52.998;9.116;2024-03-08T07:13:54;0.10;99.90
33328;DHT22;19692;52.998;9.116;2024-03-08T07:16:19;0.10;99.90
33328;DHT22;19692;52.998;9.116;2024-03-08T07:18:46;0.20;99.90
33328;DHT22;19692;52.998;9.116;2024-03-08T07:21:12;0.30;99.90
33328;DHT22;19692;52.998;9.116;2024-03-08T07:23:37;0.30;99.90
33328;DHT22;19692;52.998;9.116;2024-03-08T07:26:20;0.50;99.90
33328;DHT22;19692;52.998;9.116;2024-03-08T07:28:45;0.50;99.90
33328;DHT22;19692;52.998;9.116;2024-03-08T07:31:11;0.60;99.90
33328;DHT22;19692;52.998;9.116;2024-03-08T07:33:52;0.70;99.90
33328;DHT22;19692;52.998;9.116;2024-03-08T07:36:19;0.90;99.90
33328;DHT22;19692;52.998;9.116;2024-03-08T07:38:44;0.90;99.90
33328;DHT22;19692;52.998;9.116;2024-03-08T07:41:12;1.00;99.90
33328;DHT22;19692;52.998;9.116;2024-03-08T07:43:38;1.10;99.90
33328;DHT22;19692;52.998;9.116;2024-03-08T07:46:04;1.20;99.90
33328;DHT22;19692;52.998;9.116;2024-03-08T07:48:29;1.30;99.90
33328;DHT22;19692;52.998;9.116;2024-03-08T07:50:56;1.50;99.90
33328;DHT22;19692;52.998;9.116;2024-03-08T07:53:21;1.50;99.90
33328;DHT22;19692;52.998;9.116;2024-03-08T07:55:47;1.70;99.90
33328;DHT22;19692;52.998;9.116;2024-03-08T07:58:12;1.80;99.90
33328;DHT22;19692;52.998;9.116;2024-03-08T08:00:39;1.90;99.90
33328;DHT22;19692;52.998;9.116;2024-03-08T08:03:05;2.10;99.90
33328;DHT22;19692;52.998;9.116;2024-03-08T08:05:30;2.10;99.90
33328;DHT22;19692;52.998;9.116;2024-03-08T08:08:01;2.30;99.90
33328;DHT22;19692;52.998;9.116;2024-03-08T08:10:28;2.30;99.90
33328;DHT22;19692;52.998;9.116;2024-03-08T08:12:54;2.40;99.90
33328;DHT22;19692;52.998;9.116;2024-03-08T08:15:19;2.50;99.90
33328;DHT22;19692;52.998;9.116;2024-03-08T08:17:46;2.60;99.90
33328;DHT22;19692;52.998;9.116;2024-03-08T08:20:12;2.70;99.90
33328;DHT22;19692;52.998;9.116;2024-03-08T08:22:41;2.80;99.90
33328;DHT22;19692;52.998;9.116;2024-03-08T08:25:08;2.80;99.90
33328;DHT22;19692;52.998;9.116;2024-03-08T08:27:34;3.00;99.90
33328;DHT22;19692;52.998;9.116;2024-03-08T08:30:02;3.10;99.90
33328;DHT22;19692;52.998;9.116;2024-03-08T08:32:28;3.30;99.90
33328;DHT22;19692;52.998;9.116;2024-03-08T08:34:53;3.30;99.90
33328;DHT22;19692;52.998;9.116;2024-03-08T08:37:19;3.50;99.90
33328;DHT22;19692;52.998;9.116;2024-03-08T08:39:44;3.70;99.90
33328;DHT22;19692;52.998;9.116;2024-03-08T08:42:10;3.80;99.90
33328;DHT22;19692;52.998;9.116;2024-03-08T08:44:36;3.90;99.90
33328;DHT22;19692;52.998;9.116;2024-03-08T08:47:02;4.00;99.90
33328;DHT22;19692;52.998;9.116;2024-03-08T08:49:29;4.10;99.90
33328;DHT22;19692;52.998;9.116;2024-03-08T08:51:56;4.20;99.90
33328;DHT22;19692;52.998;9.116;2024-03-08T08:54:23;4.30;99.90
33328;DHT22;19692;52.998;9.116;2024-03-08T08:56:50;4.40;99.90
33328;DHT22;19692;52.998;9.116;2024-03-08T08:59:16;4.60;99.90
33328;DHT22;19692;52.998;9.116;2024-03-08T09:01:45;4.80;99.90
33328;DHT22;19692;52.998;9.116;2024-03-08T09:04:12;5.00;99.90
33328;DHT22;19692;52.998;9.116;2024-03-08T09:06:38;5.00;99.90
33328;DHT22;19692;52.998;9.116;2024-03-08T09:09:06;5.20;99.90
33328;DHT22;19692;52.998;9.116;2024-03-08T09:11:34;5.30;99.90
33328;DHT22;19692;52.998;9.116;2024-03-08T09:14:00;5.30;99.90
33328;DHT22;19692;52.998;9.116;2024-03-08T09:16:27;5.50;99.90
33328;DHT22;19692;52.998;9.116;2024-03-08T09:18:53;5.60;99.90
33328;DHT22;19692;52.998;9.116;2024-03-08T09:21:18;5.80;99.90
33328;DHT22;19692;52.998;9.116;2024-03-08T09:23:44;6.00;99.90
33328;DHT22;19692;52.998;9.116;2024-03-08T09:26:10;6.00;99.90
33328;DHT22;19692;52.998;9.116;2024-03-08T09:28:38;6.00;99.90
33328;DHT22;19692;52.998;9.116;2024-03-08T09:31:04;6.20;99.90
33328;DHT22;19692;52.998;9.116;2024-03-08T09:33:30;6.50;99.90
33328;DHT22;19692;52.998;9.116;2024-03-08T09:35:56;6.50;99.90
33328;DHT22;19692;52.998;9.116;2024-03-08T09:38:25;6.60;99.90
33328;DHT22;19692;52.998;9.116;2024-03-08T09:40:51;6.90;99.90
33328;DHT22;19692;52.998;9.116;2024-03-08T09:43:18;7.00;99.90
33328;DHT22;19692;52.998;9.116;2024-03-08T09:45:45;7.10;99.90
33328;DHT22;19692;52.998;9.116;2024-03-08T09:48:12;7.10;99.90
33328;DHT22;19692;52.998;9.116;2024-03-08T09:50:39;7.20;99.90
33328;DHT22;19692;52.998;9.116;2024-03-08T09:53:04;7.50;99.90
33328;DHT22;19692;52.998;9.116;2024-03-08T09:55:36;7.50;99.90
33328;DHT22;19692;52.998;9.116;2024-03-08T09:58:05;7.60;99.90
33328;DHT22;19692;52.998;9.116;2024-03-08T10:00:49;7.60;99.90
33328;DHT22;19692;52.998;9.116;2024-03-08T10:03:15;7.60;99.90
33328;DHT22;19692;52.998;9.116;2024-03-08T10:05:41;7.80;99.90
33328;DHT22;19692;52.998;9.116;2024-03-08T10:08:07;7.90;99.90
33328;DHT22;19692;52.998;9.116;2024-03-08T10:10:37;8.00;99.90
33328;DHT22;19692;52.998;9.116;2024-03-08T10:13:09;8.20;99.90
33328;DHT22;19692;52.998;9.116;2024-03-08T10:15:37;8.20;99.90
33328;DHT22;19692;52.998;9.116;2024-03-08T10:18:04;8.20;99.90
33328;DHT22;19692;52.998;9.116;2024-03-08T10:20:32;8.30;99.90
33328;DHT22;19692;52.998;9.116;2024-03-08T10:23:02;8.30;99.90
33328;DHT22;19692;52.998;9.116;2024-03-08T10:25:34;8.50;99.90
33328;DHT22;19692;52.998;9.116;2024-03-08T10:28:02;8.50;99.90
33328;DHT22;19692;52.998;9.116;2024-03-08T10:30:29;8.70;99.90
33328;DHT22;19692;52.998;9.116;2024-03-08T10:32:55;8.90;99.90
33328;DHT22;19692;52.998;9.116;2024-03-08T10:35:21;8.90;99.90
33328;DHT22;19692;52.998;9.116;2024-03-08T10:37:49;8.80;99.90
33328;DHT22;19692;52.998;9.116;2024-03-08T10:40:19;8.80;99.90
33328;DHT22;19692;52.998;9.116;2024-03-08T10:42:55;8.90;99.90
33328;DHT22;19692;52.998;9.116;2024-03-08T10:45:33;9.10;99.90
33328;DHT22;19692;52.998;9.116;2024-03-08T10:50:49;9.20;99.90
33328;DHT22;19692;52.998;9.116;2024-03-08T10:53:17;9.20;99.90
33328;DHT22;19692;52.998;9.116;2024-03-08T10:55:44;9.30;99.90
33328;DHT22;19692;52.998;9.116;2024-03-08T10:58:10;9.60;99.90
33328;DHT22;19692;52.998;9.116;2024-03-08T11:00:36;9.80;99.90
33328;DHT22;19692;52.998;9.116;2024-03-08T11:03:03;10.00;99.90
33328;DHT22;19692;52.998;9.116;2024-03-08T11:08:26;10.30;99.90
33328;DHT22;19692;52.998;9.116;2024-03-08T11:10:53;10.70;99.90
33328;DHT22;19692;52.998;9.116;2024-03-08T11:15:59;10.50;99.90
33328;DHT22;19692;52.998;9.116;2024-03-08T11:18:26;10.40;99.90
33328;DHT22;19692;52.998;9.116;2024-03-08T11:20:55;10.60;99.90
33328;DHT22;19692;52.998;9.116;2024-03-08T11:23:23;11.00;99.90
33328;DHT22;19692;52.998;9.116;2024-03-08T11:25:50;10.90;99.90
33328;DHT22;19692;52.998;9.116;2024-03-08T11:28:23;10.40;99.90
33328;DHT22;19692;52.998;9.116;2024-03-08T11:33:28;10.60;99.90
33328;DHT22;19692;52.998;9.116;2024-03-08T11:36:13;11.00;99.90
33328;DHT22;19692;52.998;9.116;2024-03-08T11:38:42;11.50;99.90
33328;DHT22;19692;52.998;9.116;2024-03-08T11:41:09;11.60;99.90
33328;DHT22;19692;52.998;9.116;2024-03-08T11:43:42;11.40;99.90
33328;DHT22;19692;52.998;9.116;2024-03-08T11:46:10;11.30;99.90
33328;DHT22;19692;52.998;9.116;2024-03-08T11:48:38;11.10;99.90
33328;DHT22;19692;52.998;9.116;2024-03-08T11:51:05;11.00;99.90
33328;DHT22;19692;52.998;9.116;2024-03-08T11:53:31;11.00;99.90
33328;DHT22;19692;52.998;9.116;2024-03-08T11:56:12;10.80;99.90
33328;DHT22;19692;52.998;9.116;2024-03-08T11:58:38;10.80;99.90
33328;DHT22;19692;52.998;9.116;2024-03-08T12:01:06;11.30;99.90
33328;DHT22;19692;52.998;9.116;2024-03-08T12:03:33;11.30;99.90
33328;DHT22;19692;52.998;9.116;2024-03-08T12:06:00;11.20;99.90
33328;DHT22;19692;52.998;9.116;2024-03-08T12:08:25;11.80;99.90
33328;DHT22;19692;52.998;9.116;2024-03-08T12:10:54;12.20;99.90
33328;DHT22;19692;52.998;9.116;2024-03-08T12:13:28;12.20;99.90
33328;DHT22;19692;52.998;9.116;2024-03-08T12:15:59;12.40;99.90
33328;DHT22;19692;52.998;9.116;2024-03-08T12:18:28;12.30;99.90
33328;DHT22;19692;52.998;9.116;2024-03-08T12:21:10;12.50;99.90
33328;DHT22;19692;52.998;9.116;2024-03-08T12:23:37;12.60;99.90
33328;DHT22;19692;52.998;9.116;2024-03-08T12:26:24;12.60;99.90
33328;DHT22;19692;52.998;9.116;2024-03-08T12:28:49;13.00;99.90
33328;DHT22;19692;52.998;9.116;2024-03-08T12:31:18;12.80;99.90
33328;DHT22;19692;52.998;9.116;2024-03-08T12:33:49;12.20;99.90
33328;DHT22;19692;52.998;9.116;2024-03-08T12:36:16;12.20;99.90
33328;DHT22;19692;52.998;9.116;2024-03-08T12:38:46;12.40;99.90
33328;DHT22;19692;52.998;9.116;2024-03-08T12:41:19;12.90;99.90
33328;DHT22;19692;52.998;9.116;2024-03-08T12:43:45;13.40;99.90
33328;DHT22;19692;52.998;9.116;2024-03-08T12:46:18;12.70;99.90
33328;DHT22;19692;52.998;9.116;2024-03-08T12:48:47;12.60;99.90
33328;DHT22;19692;52.998;9.116;2024-03-08T12:51:17;12.80;99.90
33328;DHT22;19692;52.998;9.116;2024-03-08T12:53:43;13.00;99.90
33328;DHT22;19692;52.998;9.116;2024-03-08T12:56:13;12.10;99.90
33328;DHT22;19692;52.998;9.116;2024-03-08T12:58:39;12.40;99.90
33328;DHT22;19692;52.998;9.116;2024-03-08T13:01:06;12.50;99.90
33328;DHT22;19692;52.998;9.116;2024-03-08T13:03:35;12.60;99.90
33328;DHT22;19692;52.998;9.116;2024-03-08T13:06:05;12.20;99.90
33328;DHT22;19692;52.998;9.116;2024-03-08T13:08:37;12.20;99.90
33328;DHT22;19692;52.998;9.116;2024-03-08T13:11:09;12.40;99.90
33328;DHT22;19692;52.998;9.116;2024-03-08T13:13:36;12.40;99.90
33328;DHT22;19692;52.998;9.116;2024-03-08T13:16:03;12.80;99.90
33328;DHT22;19692;52.998;9.116;2024-03-08T13:18:33;13.00;99.90
33328;DHT22;19692;52.998;9.116;2024-03-08T13:20:58;13.40;99.90
33328;DHT22;19692;52.998;9.116;2024-03-08T13:23:24;13.40;99.90
33328;DHT22;19692;52.998;9.116;2024-03-08T13:25:50;13.50;99.90
33328;DHT22;19692;52.998;9.116;2024-03-08T13:28:16;12.90;99.90
33328;DHT22;19692;52.998;9.116;2024-03-08T13:30:42;13.50;99.90
33328;DHT22;19692;52.998;9.116;2024-03-08T13:33:09;13.10;99.90
33328;DHT22;19692;52.998;9.116;2024-03-08T13:35:35;12.70;99.90
33328;DHT22;19692;52.998;9.116;2024-03-08T13:38:00;12.90;99.90
33328;DHT22;19692;52.998;9.116;2024-03-08T13:40:28;12.80;99.90
33328;DHT22;19692;52.998;9.116;2024-03-08T13:42:54;12.70;99.90
33328;DHT22;19692;52.998;9.116;2024-03-08T13:45:20;13.20;99.90
33328;DHT22;19692;52.998;9.116;2024-03-08T13:47:49;13.30;99.90
33328;DHT22;19692;52.998;9.116;2024-03-08T13:50:17;13.40;99.90
33328;DHT22;19692;52.998;9.116;2024-03-08T13:52:47;13.70;99.90
33328;DHT22;19692;52.998;9.116;2024-03-08T13:55:17;13.90;99.90
33328;DHT22;19692;52.998;9.116;2024-03-08T13:57:42;13.30;99.90
33328;DHT22;19692;52.998;9.116;2024-03-08T14:00:10;13.30;99.90
33328;DHT22;19692;52.998;9.116;2024-03-08T14:02:36;12.80;99.90
33328;DHT22;19692;52.998;9.116;2024-03-08T14:05:02;12.90;99.90
33328;DHT22;19692;52.998;9.116;2024-03-08T14:07:28;13.10;99.90
33328;DHT22;19692;52.998;9.116;2024-03-08T14:09:54;13.10;99.90
33328;DHT22;19692;52.998;9.116;2024-03-08T14:12:20;12.90;99.90
33328;DHT22;19692;52.998;9.116;2024-03-08T14:14:45;12.30;99.90
33328;DHT22;19692;52.998;9.116;2024-03-08T14:17:11;12.60;99.90
33328;DHT22;19692;52.998;9.116;2024-03-08T14:19:42;12.50;99.90
33328;DHT22;19692;52.998;9.116;2024-03-08T14:22:08;12.80;99.90
33328;DHT22;19692;52.998;9.116;2024-03-08T14:24:36;12.70;99.90
33328;DHT22;19692;52.998;9.116;2024-03-08T14:27:02;12.70;99.90
33328;DHT22;19692;52.998;9.116;2024-03-08T14:29:29;12.70;99.90
33328;DHT22;19692;52.998;9.116;2024-03-08T14:31:56;12.60;99.90
33328;DHT22;19692;52.998;9.116;2024-03-08T14:34:27;13.10;99.90
33328;DHT22;19692;52.998;9.116;2024-03-08T14:36:54;13.70;99.90
33328;DHT22;19692;52.998;9.116;2024-03-08T14:39:20;12.90;99.90
33328;DHT22;19692;52.998;9.116;2024-03-08T14:41:50;12.80;99.90
33328;DHT22;19692;52.998;9.116;2024-03-08T14:44:19;12.30;99.90
33328;DHT22;19692;52.998;9.116;2024-03-08T14:46:45;12.20;99.90
33328;DHT22;19692;52.998;9.116;2024-03-08T14:49:11;12.20;99.90
33328;DHT22;19692;52.998;9.116;2024-03-08T14:51:37;12.60;99.90
33328;DHT22;19692;52.998;9.116;2024-03-08T14:54:02;12.20;99.90
33328;DHT22;19692;52.998;9.116;2024-03-08T14:56:34;12.10;99.90
33328;DHT22;19692;52.998;9.116;2024-03-08T14:59:00;12.40;99.90
33328;DHT22;19692;52.998;9.116;2024-03-08T15:01:26;12.40;99.90
33328;DHT22;19692;52.998;9.116;2024-03-08T15:03:55;12.70;99.90
33328;DHT22;19692;52.998;9.116;2024-03-08T15:06:21;12.40;99.90
33328;DHT22;19692;52.998;9.116;2024-03-08T15:08:49;12.40;99.90
33328;DHT22;19692;52.998;9.116;2024-03-08T15:11:14;12.10;99.90
33328;DHT22;19692;52.998;9.116;2024-03-08T15:13:47;11.80;99.90
33328;DHT22;19692;52.998;9.116;2024-03-08T15:16:16;11.70;99.90
33328;DHT22;19692;52.998;9.116;2024-03-08T15:18:44;11.80;99.90
33328;DHT22;19692;52.998;9.116;2024-03-08T15:21:13;11.90;99.90
33328;DHT22;19692;52.998;9.116;2024-03-08T15:23:44;11.50;99.90
33328;DHT22;19692;52.998;9.116;2024-03-08T15:26:15;11.50;99.90
33328;DHT22;19692;52.998;9.116;2024-03-08T15:28:44;11.50;99.90
33328;DHT22;19692;52.998;9.116;2024-03-08T15:31:12;11.40;99.90
33328;DHT22;19692;52.998;9.116;2024-03-08T15:33:39;11.10;99.90
33328;DHT22;19692;52.998;9.116;2024-03-08T15:36:14;11.00;99.90
33328;DHT22;19692;52.998;9.116;2024-03-08T15:38:41;11.00;99.90
33328;DHT22;19692;52.998;9.116;2024-03-08T15:41:09;10.90;99.90
33328;DHT22;19692;52.998;9.116;2024-03-08T15:43:41;10.70;99.90
33328;DHT22;19692;52.998;9.116;2024-03-08T15:46:08;10.60;99.90
33328;DHT22;19692;52.998;9.116;2024-03-08T15:48:35;10.70;99.90
33328;DHT22;19692;52.998;9.116;2024-03-08T15:51:01;10.60;99.90